createdAt,value
2023-04-16T00:01:13.567Z,86.21
2023-04-16T00:04:01.136Z,86.20
2023-04-16T00:06:50.628Z,85.99
2023-04-16T00:09:37.844Z,86.21
2023-04-16T00:12:25.549Z,86.13
2023-04-16T00:15:12.807Z,86.35
2023-04-16T00:18:00.528Z,86.36
2023-04-16T00:20:48.581Z,86.33
2023-04-16T00:23:36.549Z,86.26
2023-04-16T00:26:23.763Z,86.29
2023-04-16T00:29:11.991Z,86.19
2023-04-16T00:31:59.240Z,86.26
2023-04-16T00:34:46.927Z,86.33
2023-04-16T00:37:34.221Z,86.28
2023-04-16T00:40:21.824Z,86.10
2023-04-16T00:43:09.304Z,86.03
2023-04-16T00:45:56.967Z,86.11
2023-04-16T00:48:45.640Z,86.51
2023-04-16T00:51:36.799Z,86.50
2023-04-16T00:54:25.465Z,86.10
2023-04-16T00:57:14.523Z,86.22
2023-04-16T01:00:09.991Z,85.98
2023-04-16T01:06:23.436Z,86.37
2023-04-16T01:09:13.050Z,86.62
2023-04-16T01:12:02.186Z,86.76
2023-04-16T01:14:51.351Z,87.03
2023-04-16T01:17:40.496Z,87.15
2023-04-16T01:20:29.651Z,87.21
2023-04-16T01:23:19.667Z,87.38
2023-04-16T01:26:08.605Z,87.20
2023-04-16T01:28:57.574Z,87.12
2023-04-16T01:31:46.964Z,86.96
2023-04-16T01:34:48.025Z,87.01
2023-04-16T01:37:37.234Z,86.86
2023-04-16T01:40:26.280Z,86.52
2023-04-16T01:43:15.820Z,86.38
2023-04-16T01:46:18.688Z,86.29
2023-04-16T01:49:08.000Z,85.94
2023-04-16T01:51:57.709Z,85.70
2023-04-16T01:54:46.780Z,85.75
2023-04-16T01:57:35.871Z,85.74
2023-04-16T02:00:25.214Z,85.78
2023-04-16T02:03:17.815Z,85.69
2023-04-16T02:06:06.761Z,85.98
2023-04-16T02:08:56.208Z,86.65
2023-04-16T02:11:45.123Z,87.12
2023-04-16T02:14:34.240Z,87.54
2023-04-16T02:17:23.743Z,87.69
2023-04-16T02:20:13.885Z,87.85
2023-04-16T02:23:15.044Z,88.11
2023-04-16T02:26:03.973Z,88.10
2023-04-16T02:28:52.932Z,88.09
2023-04-16T02:31:44.994Z,88.14
2023-04-16T02:34:34.751Z,88.33
2023-04-16T02:37:23.681Z,88.60
2023-04-16T02:40:12.476Z,88.68
2023-04-16T02:43:01.735Z,88.86
2023-04-16T02:45:50.421Z,88.87
2023-04-16T02:48:39.194Z,88.95
2023-04-16T02:51:27.805Z,89.02
2023-04-16T02:54:16.735Z,88.96
2023-04-16T02:57:06.224Z,88.93
2023-04-16T02:59:55.074Z,89.16
2023-04-16T03:02:44.115Z,88.93
2023-04-16T03:05:33.025Z,89.10
2023-04-16T03:08:21.757Z,89.08
2023-04-16T03:11:10.676Z,89.05
2023-04-16T03:13:59.582Z,88.93
2023-04-16T03:16:48.518Z,88.86
2023-04-16T03:19:37.308Z,88.87
2023-04-16T03:22:26.436Z,89.22
2023-04-16T03:25:15.105Z,89.38
2023-04-16T03:28:04.176Z,89.51
2023-04-16T03:30:53.727Z,89.70
2023-04-16T03:33:42.755Z,89.95
2023-04-16T03:36:32.603Z,89.75
2023-04-16T03:39:21.628Z,89.73
2023-04-16T03:42:10.368Z,89.64
2023-04-16T03:44:59.563Z,89.64
2023-04-16T03:47:52.612Z,89.67
2023-04-16T03:50:48.116Z,89.60
2023-04-16T03:53:37.773Z,89.75
2023-04-16T03:56:26.844Z,89.87
2023-04-16T03:59:15.899Z,90.07
2023-04-16T04:02:06.327Z,90.07
2023-04-16T04:04:55.334Z,90.11
2023-04-16T04:07:45.409Z,89.93
2023-04-16T04:10:36.228Z,89.96
2023-04-16T04:13:26.513Z,89.84
2023-04-16T04:16:15.511Z,89.81
2023-04-16T04:19:06.147Z,89.66
2023-04-16T04:21:55.434Z,89.87
2023-04-16T04:24:44.319Z,89.94
2023-04-16T04:27:33.080Z,90.22
2023-04-16T04:30:21.928Z,90.26
2023-04-16T04:33:11.128Z,90.21
2023-04-16T04:36:00.317Z,90.42
2023-04-16T04:38:49.702Z,90.33
2023-04-16T04:41:39.451Z,90.73
2023-04-16T04:44:28.251Z,90.94
2023-04-16T04:47:17.270Z,91.26
2023-04-16T04:50:06.629Z,91.17
2023-04-16T04:52:55.892Z,91.01
2023-04-16T04:55:44.821Z,90.94
2023-04-16T04:58:33.643Z,91.22
2023-04-16T05:01:22.322Z,91.00
2023-04-16T05:04:11.345Z,90.88
2023-04-16T05:07:00.166Z,90.98
2023-04-16T05:09:49.000Z,91.27
2023-04-16T05:12:37.689Z,91.16
2023-04-16T05:15:26.613Z,91.69
2023-04-16T05:18:15.776Z,91.85
2023-04-16T05:21:04.841Z,91.93
2023-04-16T05:23:54.382Z,92.37
2023-04-16T05:26:43.309Z,92.50
2023-04-16T05:29:32.031Z,92.04
2023-04-16T05:32:20.955Z,91.52
2023-04-16T05:35:09.998Z,91.35
2023-04-16T05:37:58.720Z,91.64
2023-04-16T05:40:47.483Z,91.89
2023-04-16T05:43:36.128Z,91.46
2023-04-16T05:46:24.918Z,91.04
2023-04-16T05:49:14.512Z,91.75
2023-04-16T05:52:06.335Z,91.97
2023-04-16T05:54:54.976Z,91.31
2023-04-16T05:57:43.648Z,91.24
2023-04-16T06:00:34.816Z,91.35
2023-04-16T06:03:23.491Z,91.76
2023-04-16T06:06:12.373Z,91.83
2023-04-16T06:09:01.000Z,91.88
2023-04-16T06:11:50.605Z,92.05
2023-04-16T06:14:39.247Z,92.06
2023-04-16T06:17:28.251Z,91.90
2023-04-16T06:20:17.012Z,91.59
2023-04-16T06:23:05.606Z,91.68
2023-04-16T06:25:54.575Z,92.12
2023-04-16T06:28:43.546Z,91.89
2023-04-16T06:31:32.315Z,91.17
2023-04-16T06:34:21.333Z,91.18
2023-04-16T06:37:10.820Z,91.22
2023-04-16T06:39:59.513Z,91.28
2023-04-16T06:42:48.463Z,91.11
2023-04-16T06:45:37.436Z,90.62
2023-04-16T06:48:26.376Z,90.61
2023-04-16T06:51:15.612Z,90.68
2023-04-16T06:54:04.292Z,90.71
2023-04-16T06:56:53.293Z,90.41
2023-04-16T06:59:42.209Z,90.07
2023-04-16T07:02:31.385Z,89.62
2023-04-16T07:05:20.110Z,89.95
2023-04-16T07:08:08.865Z,90.05
2023-04-16T07:10:57.567Z,90.01
2023-04-16T07:13:46.581Z,90.47
2023-04-16T07:16:35.381Z,90.35
2023-04-16T07:19:24.241Z,89.84
2023-04-16T07:22:13.383Z,91.02
2023-04-16T07:25:02.372Z,91.00
2023-04-16T07:27:51.926Z,91.15
2023-04-16T07:30:41.182Z,90.42
2023-04-16T07:33:30.030Z,90.27
2023-04-16T07:36:18.897Z,90.11
2023-04-16T07:39:07.874Z,89.67
2023-04-16T07:41:56.966Z,89.19
2023-04-16T07:44:45.696Z,88.97
2023-04-16T07:47:34.359Z,88.79
2023-04-16T07:50:23.161Z,88.95
2023-04-16T07:53:12.313Z,89.33
2023-04-16T07:56:01.053Z,89.00
2023-04-16T07:58:50.064Z,89.13
2023-04-16T08:01:38.966Z,88.68
2023-04-16T08:04:27.942Z,87.96
2023-04-16T08:07:17.140Z,88.56
2023-04-16T08:10:06.744Z,88.46
2023-04-16T08:12:55.791Z,87.37
2023-04-16T08:15:44.742Z,86.29
2023-04-16T08:18:33.352Z,85.81
2023-04-16T08:21:22.697Z,85.56
2023-04-16T08:24:11.971Z,85.19
2023-04-16T08:27:11.565Z,85.46
2023-04-16T08:30:08.333Z,86.49
2023-04-16T08:32:57.151Z,84.80
2023-04-16T08:35:45.859Z,84.69
2023-04-16T08:38:34.503Z,84.18
2023-04-16T08:41:24.921Z,84.16
2023-04-16T08:44:28.410Z,83.07
2023-04-16T08:47:17.742Z,83.15
2023-04-16T08:50:07.358Z,83.29
2023-04-16T08:53:00.775Z,84.28
2023-04-16T08:55:51.989Z,84.36
2023-04-16T08:58:41.894Z,84.29
2023-04-16T09:01:31.275Z,84.65
2023-04-16T09:04:21.322Z,85.42
2023-04-16T09:07:10.868Z,85.15
2023-04-16T09:10:00.623Z,84.91
2023-04-16T09:12:50.675Z,83.84
2023-04-16T09:15:39.810Z,81.95
2023-04-16T09:18:28.793Z,79.61
2023-04-16T09:21:17.442Z,80.23
2023-04-16T09:33:25.226Z,80.16
2023-04-16T09:36:14.216Z,79.87
2023-04-16T09:39:03.946Z,79.45
2023-04-16T09:41:54.785Z,79.50
2023-04-16T09:44:43.930Z,79.49
2023-04-16T09:47:41.500Z,79.19
2023-04-16T09:50:30.805Z,79.33
2023-04-16T09:53:30.819Z,79.73
2023-04-16T09:56:24.967Z,79.70
2023-04-16T09:59:18.132Z,80.16
2023-04-16T10:02:14.669Z,79.02
2023-04-16T10:05:05.150Z,78.30
2023-04-16T10:07:59.617Z,78.21
2023-04-16T10:10:48.680Z,78.99
2023-04-16T10:13:37.464Z,77.49
2023-04-16T10:16:26.834Z,77.69
2023-04-16T10:19:16.568Z,78.94
2023-04-16T10:22:05.676Z,79.54
2023-04-16T10:24:55.765Z,78.22
2023-04-16T10:27:44.807Z,78.47
2023-04-16T10:39:53.153Z,74.92
2023-04-16T10:42:42.035Z,74.15
2023-04-16T10:45:32.926Z,74.57
2023-04-16T10:48:23.901Z,75.90
2023-04-16T10:51:34.645Z,75.86
2023-04-16T10:54:26.476Z,75.32
2023-04-16T10:57:17.891Z,73.90
2023-04-16T11:00:22.824Z,75.15
2023-04-16T11:03:12.083Z,75.43
2023-04-16T11:06:11.984Z,74.73
2023-04-16T11:09:03.057Z,73.33
2023-04-16T11:11:51.912Z,72.86
2023-04-16T11:14:41.617Z,73.29
2023-04-16T11:17:39.173Z,74.66
2023-04-16T11:20:28.801Z,75.75
2023-04-16T11:23:18.151Z,73.49
2023-04-16T11:26:20.533Z,73.86
2023-04-16T11:29:18.555Z,72.09
2023-04-16T11:32:07.915Z,72.10
2023-04-16T11:34:56.909Z,73.52
2023-04-16T11:37:47.156Z,71.75
2023-04-16T11:40:36.507Z,70.79
2023-04-16T11:43:26.856Z,70.34
2023-04-16T11:46:26.893Z,70.95
2023-04-16T11:49:17.832Z,71.19
2023-04-16T11:52:08.076Z,69.94
2023-04-16T11:54:59.965Z,70.36
2023-04-16T11:57:49.184Z,71.13
2023-04-16T12:00:39.887Z,70.45
2023-04-16T12:03:46.768Z,70.41
2023-04-16T12:06:36.263Z,70.36
2023-04-16T12:09:26.282Z,71.83
2023-04-16T12:12:32.316Z,70.21
2023-04-16T12:15:21.613Z,69.36
2023-04-16T12:18:10.564Z,70.81
2023-04-16T12:20:59.466Z,71.22
2023-04-16T12:23:53.865Z,71.56
2023-04-16T12:26:48.858Z,71.15
2023-04-16T12:29:38.882Z,70.46
2023-04-16T12:39:18.967Z,65.69
2023-04-16T12:42:09.960Z,65.68
2023-04-16T12:44:58.820Z,67.30
2023-04-16T12:47:47.818Z,67.12
2023-04-16T12:50:36.994Z,66.98
2023-04-16T12:53:26.220Z,68.02
2023-04-16T12:56:15.666Z,68.44
2023-04-16T12:59:05.030Z,68.18
2023-04-16T13:01:53.992Z,67.85
2023-04-16T13:04:43.056Z,66.45
2023-04-16T13:07:34.254Z,66.36
2023-04-16T13:10:23.604Z,66.64
2023-04-16T13:13:12.611Z,67.00
2023-04-16T13:16:04.072Z,66.71
2023-04-16T13:18:53.425Z,66.60
2023-04-16T13:21:42.028Z,66.94
2023-04-16T13:24:30.888Z,64.38
2023-04-16T13:27:20.273Z,66.29
2023-04-16T13:30:09.758Z,65.04
2023-04-16T13:33:00.101Z,63.47
2023-04-16T13:35:49.700Z,63.41
2023-04-16T13:38:39.517Z,64.59
2023-04-16T13:41:28.240Z,65.01
2023-04-16T13:44:16.993Z,65.39
2023-04-16T13:47:06.088Z,65.22
2023-04-16T13:49:55.113Z,65.98
2023-04-16T13:52:44.092Z,65.28
2023-04-16T13:55:32.909Z,65.51
2023-04-16T13:58:21.991Z,65.85
2023-04-16T14:01:11.019Z,66.10
2023-04-16T14:04:06.446Z,65.83
2023-04-16T14:06:55.723Z,65.60
2023-04-16T14:09:44.607Z,65.79
2023-04-16T14:12:33.330Z,65.67
2023-04-16T14:15:22.325Z,66.38
2023-04-16T14:18:11.261Z,66.42
2023-04-16T14:21:02.093Z,66.55
2023-04-16T14:23:51.382Z,66.68
2023-04-16T14:26:40.076Z,65.17
2023-04-16T14:29:29.079Z,65.66
2023-04-16T14:32:18.834Z,64.72
2023-04-16T14:35:08.355Z,64.88
2023-04-16T14:37:57.029Z,65.20
2023-04-16T14:40:45.942Z,65.62
2023-04-16T14:43:35.904Z,65.87
2023-04-16T14:46:25.076Z,66.13
2023-04-16T14:49:14.640Z,66.44
2023-04-16T14:52:05.631Z,66.81
2023-04-16T14:54:55.382Z,66.99
2023-04-16T14:57:44.298Z,66.93
2023-04-16T15:00:35.181Z,66.97
2023-04-16T15:03:24.164Z,66.45
2023-04-16T15:06:13.881Z,66.08
2023-04-16T15:09:03.907Z,64.91
2023-04-16T15:11:53.058Z,64.25
2023-04-16T15:14:43.210Z,64.74
2023-04-16T15:17:32.240Z,64.59
2023-04-16T15:20:21.546Z,64.65
2023-04-16T15:23:11.170Z,64.20
2023-04-16T15:26:00.284Z,64.05
2023-04-16T15:28:49.414Z,64.12
2023-04-16T15:31:38.614Z,63.73
2023-04-16T15:34:28.128Z,63.66
2023-04-16T15:37:17.113Z,64.11
2023-04-16T15:40:09.595Z,63.79
2023-04-16T15:42:58.850Z,63.68
2023-04-16T15:45:47.941Z,63.79
2023-04-16T15:48:37.027Z,64.18
2023-04-16T15:51:26.823Z,64.51
2023-04-16T15:54:15.845Z,64.17
2023-04-16T15:57:04.933Z,64.24
2023-04-16T16:00:06.337Z,64.46
2023-04-16T16:02:57.391Z,64.44
2023-04-16T16:05:48.015Z,64.66
2023-04-16T16:08:38.584Z,64.87
2023-04-16T16:11:27.621Z,64.87
2023-04-16T16:14:18.665Z,64.77
2023-04-16T16:17:07.660Z,64.71
2023-04-16T16:19:57.856Z,64.73
2023-04-16T16:22:48.328Z,65.03
2023-04-16T16:25:37.248Z,65.33
2023-04-16T16:28:26.216Z,65.77
2023-04-16T16:31:14.872Z,66.00
2023-04-16T16:34:03.447Z,66.37
2023-04-16T16:36:52.585Z,66.70
2023-04-16T16:39:41.430Z,67.03
2023-04-16T16:42:30.084Z,67.09
2023-04-16T16:45:19.206Z,67.28
2023-04-16T16:48:08.335Z,67.40
2023-04-16T16:50:57.366Z,67.57
2023-04-16T16:53:46.660Z,67.81
2023-04-16T16:56:35.336Z,67.86
2023-04-16T16:59:24.082Z,67.98
2023-04-16T17:02:14.570Z,68.11
2023-04-16T17:05:06.122Z,68.07
2023-04-16T17:07:54.851Z,68.10
2023-04-16T17:10:44.009Z,68.24
2023-04-16T17:13:33.664Z,68.52
2023-04-16T17:16:25.480Z,68.49
2023-04-16T17:19:15.413Z,68.76
2023-04-16T17:22:05.864Z,68.90
2023-04-16T17:24:55.626Z,69.13
2023-04-16T17:27:44.613Z,69.20
2023-04-16T17:30:33.612Z,69.50
2023-04-16T17:33:22.936Z,69.62
2023-04-16T17:36:11.804Z,69.92
2023-04-16T17:39:00.647Z,70.05
2023-04-16T17:41:54.240Z,70.39
2023-04-16T17:44:43.313Z,70.49
2023-04-16T17:47:35.367Z,70.68
2023-04-16T17:50:24.516Z,71.08
2023-04-16T17:53:13.333Z,71.37
2023-04-16T17:56:02.592Z,71.56
2023-04-16T17:58:51.410Z,71.97
2023-04-16T18:01:41.053Z,71.95
2023-04-16T18:04:30.405Z,72.03
2023-04-16T18:07:19.622Z,72.46
2023-04-16T18:10:09.060Z,72.60
2023-04-16T18:12:57.739Z,72.52
2023-04-16T18:15:47.008Z,72.57
2023-04-16T18:18:35.718Z,72.74
2023-04-16T18:21:24.673Z,72.69
2023-04-16T18:24:14.025Z,72.66
2023-04-16T18:27:03.850Z,72.88
2023-04-16T18:29:54.785Z,73.00
2023-04-16T18:33:04.198Z,73.05
2023-04-16T18:35:53.720Z,73.07
2023-04-16T18:38:56.944Z,73.14
2023-04-16T18:41:49.054Z,73.51
2023-04-16T18:44:37.789Z,73.50
2023-04-16T18:47:27.256Z,73.48
2023-04-16T19:04:23.512Z,74.33
2023-04-16T19:07:11.336Z,74.32
2023-04-16T19:10:03.091Z,74.35
2023-04-16T19:12:50.776Z,74.64
2023-04-16T19:15:38.649Z,74.68
2023-04-16T19:18:26.770Z,75.10
2023-04-16T19:21:14.317Z,75.10
2023-04-16T19:24:01.821Z,75.03
2023-04-16T19:26:50.153Z,75.14
2023-04-16T19:29:39.775Z,75.30
2023-04-16T19:32:27.835Z,75.39
2023-04-16T19:35:15.556Z,75.63
2023-04-16T19:38:03.313Z,75.70
2023-04-16T19:40:50.969Z,75.75
2023-04-16T19:43:38.810Z,75.85
2023-04-16T19:46:26.508Z,75.98
2023-04-16T19:49:16.604Z,76.10
2023-04-16T19:52:04.246Z,76.24
2023-04-16T19:54:52.123Z,76.52
2023-04-16T19:57:39.874Z,76.69
2023-04-16T20:00:27.702Z,76.83
2023-04-16T20:03:15.602Z,76.96
2023-04-16T20:06:04.910Z,77.13
2023-04-16T20:08:53.297Z,77.20
2023-04-16T20:11:40.684Z,77.38
2023-04-16T20:14:27.895Z,77.55
2023-04-16T20:17:17.239Z,77.67
2023-04-16T20:20:09.468Z,77.79
2023-04-16T20:22:56.709Z,78.07
2023-04-16T20:25:45.983Z,78.06
2023-04-16T20:28:33.253Z,78.12
2023-04-16T20:31:20.489Z,78.04
2023-04-16T20:34:08.297Z,78.04
2023-04-16T20:36:57.348Z,78.09
2023-04-16T20:39:46.220Z,78.26
2023-04-16T20:42:33.872Z,78.25
2023-04-16T20:45:21.571Z,78.36
2023-04-16T20:48:09.083Z,78.39
2023-04-16T20:51:00.611Z,78.66
2023-04-16T20:53:49.472Z,78.55
2023-04-16T20:56:36.649Z,78.48
2023-04-16T20:59:24.779Z,78.58
2023-04-16T21:02:12.174Z,78.48
2023-04-16T21:04:59.804Z,78.56
2023-04-16T21:07:47.386Z,78.52
2023-04-16T21:10:34.999Z,78.60
2023-04-16T21:13:22.561Z,78.74
2023-04-16T21:16:11.738Z,78.86
2023-04-16T21:18:59.321Z,79.02
2023-04-16T21:21:46.771Z,79.30
2023-04-16T21:24:34.463Z,79.43
2023-04-16T21:27:21.569Z,79.55
2023-04-16T21:30:09.206Z,79.58
2023-04-16T21:32:56.571Z,79.65
2023-04-16T21:35:43.833Z,79.60
2023-04-16T21:38:30.966Z,79.75
2023-04-16T21:41:18.411Z,80.03
2023-04-16T21:44:05.547Z,80.20
2023-04-16T21:46:52.857Z,80.30
2023-04-16T21:49:41.716Z,80.29
2023-04-16T21:52:28.953Z,80.44
2023-04-16T21:55:16.356Z,80.53
2023-04-16T21:58:03.637Z,80.64
2023-04-16T22:00:51.627Z,80.77
2023-04-16T22:03:39.597Z,80.86
2023-04-16T22:06:27.316Z,80.89
2023-04-16T22:09:14.901Z,80.90
2023-04-16T22:12:02.334Z,81.11
2023-04-16T22:17:43.407Z,81.27
2023-04-16T22:20:38.147Z,81.56
2023-04-16T22:23:25.617Z,81.71
2023-04-16T22:26:13.084Z,81.76
2023-04-16T22:29:01.381Z,81.90
2023-04-16T22:31:48.825Z,81.80
2023-04-16T22:34:36.212Z,81.94
2023-04-16T22:37:23.650Z,82.05
2023-04-16T22:40:11.384Z,82.11
2023-04-16T22:42:58.978Z,82.12
2023-04-16T22:45:46.982Z,82.34
2023-04-16T22:48:37.406Z,82.23
2023-04-16T22:51:24.916Z,82.26
2023-04-16T22:54:13.776Z,82.37
2023-04-16T22:57:01.406Z,82.43
2023-04-16T22:59:48.757Z,82.34
2023-04-16T23:02:36.258Z,82.42
2023-04-16T23:05:23.755Z,82.43
2023-04-16T23:08:11.147Z,82.62
2023-04-16T23:10:58.499Z,82.87
2023-04-16T23:13:45.838Z,82.89
2023-04-16T23:16:33.370Z,82.99
2023-04-16T23:19:20.652Z,83.28
2023-04-16T23:22:08.250Z,83.41
2023-04-16T23:24:55.580Z,83.44
2023-04-16T23:27:42.839Z,83.45
2023-04-16T23:30:30.212Z,83.51
2023-04-16T23:33:17.697Z,83.53
2023-04-16T23:36:05.540Z,83.47
2023-04-16T23:38:53.026Z,83.59
2023-04-16T23:41:40.357Z,83.91
2023-04-16T23:44:27.574Z,83.94
2023-04-16T23:47:14.877Z,84.01
2023-04-16T23:50:02.535Z,84.06
2023-04-16T23:52:49.846Z,83.95
2023-04-16T23:55:37.594Z,84.12
2023-04-16T23:58:26.153Z,84.24
